createdAt,value
2019-04-22T00:01:30.777Z,39.25
2019-04-22T00:04:03.644Z,40.33
2019-04-22T00:06:51.700Z,40.48
2019-04-22T00:09:28.546Z,39.91
2019-04-22T00:11:53.133Z,40.33
2019-04-22T00:14:17.899Z,40.01
2019-04-22T00:19:32.008Z,40.06
2019-04-22T00:22:00.029Z,40.57
2019-04-22T00:24:26.721Z,41.28
2019-04-22T00:26:59.963Z,41.07
2019-04-22T00:29:42.491Z,40.20
2019-04-22T00:31:59.008Z,40.79
2019-04-22T00:34:27.066Z,40.81
2019-04-22T00:37:01.011Z,40.66
2019-04-22T00:39:37.339Z,40.60
2019-04-22T00:42:06.103Z,40.67
2019-04-22T00:47:07.348Z,41.46
2019-04-22T00:50:06.672Z,41.65
2019-04-22T00:54:39.619Z,41.41
2019-04-22T00:57:12.073Z,42.51
2019-04-22T00:59:40.408Z,41.35
2019-04-22T01:02:08.810Z,41.51
2019-04-22T01:04:39.299Z,41.39
2019-04-22T01:07:09.458Z,41.27
2019-04-22T01:09:40.106Z,41.28
2019-04-22T01:14:41.385Z,43.04
2019-04-22T01:17:09.328Z,42.80
2019-04-22T01:19:46.606Z,44.37
2019-04-22T01:22:17.531Z,42.92
2019-04-22T01:24:42.153Z,42.48
2019-04-22T01:27:09.128Z,42.74
2019-04-22T01:29:39.712Z,42.57
2019-04-22T01:31:56.504Z,42.10
2019-04-22T01:34:40.456Z,43.78
2019-04-22T01:37:14.069Z,43.63
2019-04-22T01:39:50.460Z,42.98
2019-04-22T01:42:15.750Z,42.98
2019-04-22T01:44:50.878Z,43.49
2019-04-22T01:47:25.087Z,43.49
2019-04-22T01:49:57.076Z,43.10
2019-04-22T01:52:23.711Z,43.10
2019-04-22T01:54:54.673Z,42.58
2019-04-22T01:57:27.043Z,43.07
2019-04-22T01:59:45.842Z,42.86
2019-04-22T02:02:30.897Z,42.95
2019-04-22T02:04:59.870Z,43.12
2019-04-22T02:07:32.099Z,43.12
2019-04-22T02:09:57.949Z,42.98
2019-04-22T02:12:30.808Z,43.45
2019-04-22T02:14:59.499Z,43.45
2019-04-22T02:17:33.359Z,42.96
2019-04-22T02:20:07.458Z,43.08
2019-04-22T02:22:41.760Z,42.71
2019-04-22T02:24:58.841Z,42.97
2019-04-22T02:27:40.407Z,43.25
2019-04-22T02:29:58.265Z,43.25
2019-04-22T02:33:03.870Z,43.34
2019-04-22T02:37:35.907Z,43.63
2019-04-22T02:42:51.841Z,43.66
2019-04-22T02:44:58.737Z,44.10
2019-04-22T02:47:36.219Z,43.81
2019-04-22T02:50:06.469Z,44.47
2019-04-22T02:55:10.752Z,44.39
2019-04-22T03:00:19.469Z,43.98
2019-04-22T03:02:50.653Z,43.87
2019-04-22T03:07:42.460Z,43.79
2019-04-22T03:10:29.468Z,44.06
2019-04-22T03:12:37.041Z,45.91
2019-04-22T03:15:07.745Z,49.11
2019-04-22T03:20:11.109Z,47.70
2019-04-22T03:27:56.396Z,47.40
2019-04-22T03:33:05.524Z,46.17
2019-04-22T03:43:02.537Z,45.66
2019-04-22T03:52:56.435Z,44.73
2019-04-22T03:55:26.676Z,44.54
2019-04-22T04:00:25.066Z,44.83
2019-04-22T04:05:35.649Z,45.05
2019-04-22T04:07:57.709Z,45.07
2019-04-22T04:12:56.223Z,44.99
2019-04-22T04:15:23.670Z,45.73
2019-04-22T04:17:56.802Z,45.67
2019-04-22T04:25:37.388Z,45.57
2019-04-22T04:30:30.281Z,44.91
2019-04-22T04:32:58.897Z,44.60
2019-04-22T04:35:30.514Z,44.85
2019-04-22T04:43:05.536Z,44.91
2019-04-22T04:45:41.152Z,44.47
2019-04-22T04:47:54.852Z,46.53
2019-04-22T04:50:26.751Z,46.53
2019-04-22T04:53:09.759Z,47.60
2019-04-22T04:58:13.541Z,45.52
2019-04-22T05:03:02.609Z,44.60
2019-04-22T05:08:00.227Z,46.63
2019-04-22T05:10:47.493Z,46.56
2019-04-22T05:13:10.348Z,45.31
2019-04-22T05:23:00.688Z,44.87
2019-04-22T05:25:28.349Z,44.87
2019-04-22T05:27:57.653Z,43.97
2019-04-22T05:33:18.987Z,42.55
2019-04-22T05:38:04.171Z,44.04
2019-04-22T05:40:40.838Z,43.75
2019-04-22T05:43:03.424Z,41.61
2019-04-22T05:45:34.685Z,41.74
2019-04-22T05:48:02.904Z,42.09
2019-04-22T05:50:29.519Z,42.40
2019-04-22T05:55:36.073Z,43.81
2019-04-22T06:01:05.735Z,42.46
2019-04-22T06:03:20.854Z,44.06
2019-04-22T06:08:13.347Z,43.85
2019-04-22T06:10:45.396Z,42.17
2019-04-22T06:13:04.428Z,41.20
2019-04-22T06:15:37.569Z,41.56
2019-04-22T06:23:25.648Z,40.86
2019-04-22T06:25:59.070Z,40.30
2019-04-22T06:28:35.233Z,40.51
2019-04-22T06:30:57.520Z,40.92
2019-04-22T06:33:26.121Z,40.83
2019-04-22T06:35:56.369Z,38.86
2019-04-22T06:40:54.042Z,39.04
2019-04-22T06:43:22.433Z,37.81
2019-04-22T06:45:51.775Z,39.24
2019-04-22T06:48:33.313Z,40.01
2019-04-22T06:50:56.809Z,37.69
2019-04-22T06:53:31.155Z,37.56
2019-04-22T06:56:12.082Z,36.88
2019-04-22T06:58:30.337Z,37.74
2019-04-22T07:01:19.341Z,37.38
2019-04-22T07:05:59.653Z,36.20
2019-04-22T07:09:03.753Z,35.54
2019-04-22T07:10:56.302Z,36.08
2019-04-22T07:13:34.398Z,35.88
2019-04-22T07:16:00.335Z,35.86
2019-04-22T07:18:38.630Z,35.86
2019-04-22T07:21:01.510Z,36.08
2019-04-22T07:23:34.937Z,36.37
2019-04-22T07:25:58.421Z,35.96
2019-04-22T07:28:22.957Z,35.54
2019-04-22T07:31:08.066Z,34.77
2019-04-22T07:36:27.755Z,34.15
2019-04-22T07:38:31.367Z,34.93
2019-04-22T07:40:59.351Z,34.62
2019-04-22T07:43:56.358Z,33.11
2019-04-22T07:46:10.857Z,32.92
2019-04-22T07:48:38.180Z,33.45
2019-04-22T07:51:07.700Z,34.36
2019-04-22T07:53:34.245Z,34.13
2019-04-22T07:56:05.343Z,34.37
2019-04-22T07:58:39.628Z,33.46
2019-04-22T08:01:08.830Z,33.61
2019-04-22T08:03:47.830Z,34.51
2019-04-22T08:08:38.365Z,35.28
2019-04-22T08:11:23.810Z,34.14
2019-04-22T08:16:10.766Z,33.96
2019-04-22T08:18:39.150Z,33.82
2019-04-22T08:21:09.322Z,33.55
2019-04-22T08:23:46.522Z,32.32
2019-04-22T08:26:04.860Z,31.67
2019-04-22T08:28:47.810Z,31.82
2019-04-22T08:31:14.917Z,32.77
2019-04-22T08:33:46.581Z,31.96
2019-04-22T08:36:18.365Z,31.75
2019-04-22T08:41:28.426Z,32.54
2019-04-22T08:43:57.820Z,31.97
2019-04-22T08:46:27.378Z,31.03
2019-04-22T08:48:57.661Z,31.26
2019-04-22T08:51:25.318Z,30.52
2019-04-22T08:53:59.813Z,30.82
2019-04-22T08:59:03.103Z,31.88
2019-04-22T09:01:27.056Z,30.52
2019-04-22T09:03:58.594Z,30.61
2019-04-22T09:09:00.899Z,30.28
2019-04-22T09:11:35.583Z,29.56
2019-04-22T09:14:02.981Z,29.48
2019-04-22T09:16:33.272Z,29.23
2019-04-22T09:18:59.260Z,30.19
2019-04-22T09:24:06.917Z,30.64
2019-04-22T09:26:36.092Z,29.80
2019-04-22T09:29:04.987Z,28.50
2019-04-22T09:31:28.980Z,29.52
2019-04-22T09:33:59.081Z,29.66
2019-04-22T09:36:44.309Z,29.10
2019-04-22T09:39:00.706Z,29.72
2019-04-22T09:41:31.862Z,30.24
2019-04-22T09:44:02.394Z,29.63
2019-04-22T09:46:36.829Z,30.49
2019-04-22T09:49:06.509Z,28.67
2019-04-22T09:51:36.873Z,29.52
2019-04-22T09:54:17.945Z,29.46
2019-04-22T09:56:37.445Z,29.26
2019-04-22T09:59:04.651Z,29.30
2019-04-22T10:01:38.524Z,28.35
2019-04-22T10:04:08.290Z,28.23
2019-04-22T10:11:37.631Z,27.95
2019-04-22T10:14:28.437Z,28.25
2019-04-22T10:19:11.155Z,27.55
2019-04-22T10:21:46.327Z,28.16
2019-04-22T10:24:09.090Z,28.08
2019-04-22T10:29:14.005Z,26.70
2019-04-22T10:31:46.608Z,27.91
2019-04-22T10:34:02.680Z,27.68
2019-04-22T10:36:17.528Z,29.00
2019-04-22T10:38:46.592Z,26.74
2019-04-22T10:41:16.553Z,26.45
2019-04-22T10:43:47.626Z,27.45
2019-04-22T10:46:16.287Z,26.59
2019-04-22T10:48:46.290Z,26.65
2019-04-22T10:51:16.799Z,26.28
2019-04-22T10:53:45.528Z,26.25
2019-04-22T10:56:14.880Z,26.83
2019-04-22T10:58:44.659Z,25.48
2019-04-22T11:01:13.694Z,25.01
2019-04-22T11:03:43.341Z,24.17
2019-04-22T11:06:12.105Z,25.06
2019-04-22T11:08:50.048Z,25.52
2019-04-22T11:11:25.943Z,25.13
2019-04-22T11:13:42.043Z,25.71
2019-04-22T11:16:11.729Z,25.00
2019-04-22T11:18:41.264Z,25.47
2019-04-22T11:21:09.955Z,25.21
2019-04-22T11:23:38.723Z,24.02
2019-04-22T11:26:08.181Z,23.49
2019-04-22T11:28:38.060Z,22.56
2019-04-22T11:31:08.146Z,23.43
2019-04-22T11:33:36.831Z,23.17
2019-04-22T11:36:06.180Z,22.73
2019-04-22T11:38:40.374Z,22.70
2019-04-22T11:41:07.103Z,22.88
2019-04-22T11:43:36.209Z,23.76
2019-04-22T11:46:05.415Z,23.11
2019-04-22T11:48:34.137Z,23.17
2019-04-22T11:51:04.149Z,23.57
2019-04-22T11:53:34.432Z,23.03
2019-04-22T11:56:04.638Z,22.77
2019-04-22T11:58:33.874Z,22.48
2019-04-22T12:01:06.604Z,22.97
2019-04-22T12:03:35.772Z,23.36
2019-04-22T12:06:05.935Z,22.91
2019-04-22T12:08:35.729Z,23.44
2019-04-22T12:11:06.029Z,23.67
2019-04-22T12:13:35.865Z,22.76
2019-04-22T12:16:05.313Z,22.68
2019-04-22T12:18:35.350Z,23.17
2019-04-22T12:21:05.308Z,21.87
2019-04-22T12:23:34.937Z,21.87
2019-04-22T12:26:09.184Z,21.85
2019-04-22T12:28:35.133Z,21.16
2019-04-22T12:31:03.906Z,21.52
2019-04-22T12:33:32.490Z,21.18
2019-04-22T12:36:02.364Z,22.54
2019-04-22T12:38:31.511Z,21.07
2019-04-22T12:41:04.362Z,21.36
2019-04-22T12:43:31.854Z,21.60
2019-04-22T12:46:02.119Z,21.90
2019-04-22T12:50:32.917Z,21.90
2019-04-22T12:53:04.776Z,21.07
2019-04-22T12:55:30.175Z,22.09
2019-04-22T12:58:00.925Z,20.93
2019-04-22T13:00:30.229Z,21.00
2019-04-22T13:02:58.968Z,21.81
2019-04-22T13:05:29.108Z,20.58
2019-04-22T13:07:57.909Z,21.50
2019-04-22T13:10:40.069Z,20.07
2019-04-22T13:12:56.991Z,20.29
2019-04-22T13:15:28.950Z,19.67
2019-04-22T13:18:05.996Z,19.51
2019-04-22T13:20:28.259Z,20.13
2019-04-22T13:22:57.087Z,20.56
2019-04-22T13:25:28.051Z,20.77
2019-04-22T13:27:57.486Z,21.24
2019-04-22T13:30:28.282Z,21.02
2019-04-22T13:32:57.043Z,20.68
2019-04-22T13:35:26.208Z,20.28
2019-04-22T13:37:57.309Z,21.92
2019-04-22T13:40:26.044Z,20.11
2019-04-22T13:42:55.555Z,20.29
2019-04-22T13:48:11.492Z,19.96
2019-04-22T13:53:40.954Z,21.14
2019-04-22T13:55:53.250Z,21.16
2019-04-22T13:58:08.687Z,23.02
2019-04-22T14:00:34.530Z,24.16
2019-04-22T14:03:22.399Z,24.44
2019-04-22T14:05:53.036Z,25.88
2019-04-22T14:08:22.989Z,25.42
2019-04-22T14:10:52.489Z,26.16
2019-04-22T14:13:21.695Z,26.03
2019-04-22T14:15:50.982Z,25.32
2019-04-22T14:18:21.061Z,27.13
2019-04-22T14:20:51.156Z,26.93
2019-04-22T14:23:20.513Z,26.21
2019-04-22T14:25:50.682Z,25.65
2019-04-22T14:28:21.991Z,26.23
2019-04-22T14:30:50.602Z,26.26
2019-04-22T14:33:20.291Z,26.60
2019-04-22T14:35:49.939Z,24.85
2019-04-22T14:38:18.664Z,25.82
2019-04-22T14:40:48.185Z,26.23
2019-04-22T14:43:47.792Z,25.11
2019-04-22T14:46:14.813Z,25.86
2019-04-22T14:48:46.449Z,26.36
2019-04-22T14:51:07.144Z,26.56
2019-04-22T14:53:41.066Z,26.65
2019-04-22T14:55:50.363Z,26.78
2019-04-22T14:58:19.253Z,27.05
2019-04-22T15:00:49.185Z,26.68
2019-04-22T15:03:19.654Z,26.84
2019-04-22T15:05:48.340Z,27.31
2019-04-22T15:08:17.336Z,28.16
2019-04-22T15:10:46.171Z,27.27
2019-04-22T15:13:15.565Z,27.30
2019-04-22T15:16:03.053Z,27.35
2019-04-22T15:18:39.725Z,26.18
2019-04-22T15:21:16.565Z,27.18
2019-04-22T15:23:46.811Z,26.56
2019-04-22T15:26:16.647Z,26.60
2019-04-22T15:28:45.355Z,26.90
2019-04-22T15:31:15.200Z,26.30
2019-04-22T15:33:48.016Z,27.39
2019-04-22T15:36:14.235Z,27.51
2019-04-22T15:38:42.890Z,27.68
2019-04-22T15:41:12.512Z,27.64
2019-04-22T15:43:41.609Z,27.93
2019-04-22T15:46:11.626Z,27.69
2019-04-22T15:48:42.054Z,27.26
2019-04-22T15:51:11.059Z,27.00
2019-04-22T15:53:39.916Z,27.44
2019-04-22T15:56:08.725Z,28.53
2019-04-22T15:58:37.600Z,28.49
2019-04-22T16:01:15.114Z,29.28
2019-04-22T16:03:36.926Z,29.72
2019-04-22T16:06:06.112Z,31.14
2019-04-22T16:08:37.332Z,30.94
2019-04-22T16:11:06.149Z,31.94
2019-04-22T16:13:38.046Z,32.14
2019-04-22T16:16:06.774Z,30.58
2019-04-22T16:18:36.124Z,31.00
2019-04-22T16:21:05.016Z,32.28
2019-04-22T16:23:36.503Z,31.50
2019-04-22T16:26:07.601Z,32.13
2019-04-22T16:28:37.649Z,33.87
2019-04-22T16:31:07.221Z,33.76
2019-04-22T16:33:39.681Z,31.58
2019-04-22T16:36:07.172Z,32.52
2019-04-22T16:38:37.324Z,31.92
2019-04-22T16:41:06.637Z,32.06
2019-04-22T16:43:36.465Z,32.74
2019-04-22T16:46:05.671Z,33.04
2019-04-22T16:48:35.861Z,32.72
2019-04-22T16:51:04.506Z,33.87
2019-04-22T16:53:33.132Z,34.27
2019-04-22T16:56:02.745Z,34.47
2019-04-22T16:58:32.609Z,35.82
2019-04-22T17:01:02.814Z,35.48
2019-04-22T17:03:40.521Z,36.11
2019-04-22T17:06:11.801Z,36.02
2019-04-22T17:08:40.575Z,36.46
2019-04-22T17:11:09.795Z,36.35
2019-04-22T17:13:40.032Z,36.12
2019-04-22T17:16:09.829Z,35.76
2019-04-22T17:18:39.394Z,35.50
2019-04-22T17:21:10.443Z,35.35
2019-04-22T17:23:38.616Z,36.39
2019-04-22T17:26:08.424Z,37.39
2019-04-22T17:28:37.483Z,36.38
2019-04-22T17:31:06.654Z,36.80
2019-04-22T17:33:36.999Z,38.14
2019-04-22T17:36:07.671Z,38.35
2019-04-22T17:38:45.403Z,38.34
2019-04-22T17:41:21.172Z,38.64
2019-04-22T17:44:02.149Z,38.48
2019-04-22T17:46:40.163Z,38.78
2019-04-22T17:49:41.767Z,38.13
2019-04-22T17:54:50.294Z,39.20
2019-04-22T17:57:21.884Z,39.30
2019-04-22T17:59:53.500Z,40.46
2019-04-22T18:02:23.887Z,39.02
2019-04-22T18:04:45.404Z,38.78
2019-04-22T18:07:29.645Z,38.20
2019-04-22T18:12:35.734Z,40.15
2019-04-22T18:14:59.332Z,39.94
2019-04-22T18:17:32.399Z,40.55
2019-04-22T18:19:54.594Z,39.03
2019-04-22T18:22:21.854Z,39.90
2019-04-22T18:24:55.970Z,38.76
2019-04-22T18:27:38.871Z,40.73
2019-04-22T18:29:59.143Z,40.57
2019-04-22T18:32:21.777Z,41.55
2019-04-22T18:34:51.154Z,40.70
2019-04-22T18:37:25.198Z,39.28
2019-04-22T18:40:02.216Z,40.21
2019-04-22T18:42:27.123Z,39.95
2019-04-22T18:45:21.632Z,39.77
2019-04-22T18:47:24.893Z,41.13
2019-04-22T18:49:56.678Z,41.12
2019-04-22T18:52:47.003Z,40.79
2019-04-22T18:55:22.628Z,40.40
2019-04-22T18:58:02.646Z,40.53
2019-04-22T19:00:23.308Z,40.33
2019-04-22T19:02:59.363Z,40.09
2019-04-22T19:05:40.093Z,40.16
2019-04-22T19:15:54.224Z,39.69
2019-04-22T19:18:24.539Z,39.66
2019-04-22T19:20:52.006Z,42.24
2019-04-22T19:23:25.842Z,41.36
2019-04-22T19:25:42.151Z,41.65
2019-04-22T19:28:23.863Z,40.97
2019-04-22T19:30:56.345Z,42.21
2019-04-22T19:33:23.959Z,42.98
2019-04-22T19:35:49.120Z,42.23
2019-04-22T19:38:15.618Z,41.65
2019-04-22T19:41:03.130Z,42.61
2019-04-22T19:43:22.925Z,44.07
2019-04-22T19:45:55.071Z,43.78
2019-04-22T19:48:32.958Z,42.86
2019-04-22T19:50:58.934Z,43.83
2019-04-22T19:53:29.693Z,43.01
2019-04-22T19:55:49.737Z,42.02
2019-04-22T19:58:20.149Z,42.19
2019-04-22T20:00:52.026Z,44.66
2019-04-22T20:03:42.684Z,44.57
2019-04-22T20:06:09.980Z,44.58
2019-04-22T20:08:45.966Z,44.97
2019-04-22T20:11:17.050Z,45.32
2019-04-22T20:13:42.849Z,47.60
2019-04-22T20:16:03.455Z,45.99
2019-04-22T20:18:50.210Z,45.78
2019-04-22T20:21:17.957Z,44.13
2019-04-22T20:23:38.297Z,45.82
2019-04-22T20:26:07.537Z,46.58
2019-04-22T20:28:51.379Z,46.45
2019-04-22T20:31:14.129Z,45.83
2019-04-22T20:33:51.375Z,47.25
2019-04-22T20:36:26.911Z,48.76
2019-04-22T20:38:46.648Z,47.39
2019-04-22T20:41:13.537Z,45.57
2019-04-22T20:43:52.810Z,46.54
2019-04-22T20:46:19.032Z,45.70
2019-04-22T20:48:50.270Z,45.79
2019-04-22T20:51:14.008Z,45.70
2019-04-22T20:53:48.001Z,46.10
2019-04-22T20:56:14.557Z,45.48
2019-04-22T20:58:54.695Z,45.79
2019-04-22T21:01:11.672Z,45.16
2019-04-22T21:03:40.792Z,45.69
2019-04-22T21:06:19.187Z,46.99
2019-04-22T21:08:57.994Z,47.70
2019-04-22T21:11:19.338Z,46.96
2019-04-22T21:13:48.184Z,44.66
2019-04-22T21:16:21.599Z,46.21
2019-04-22T21:18:47.340Z,45.15
2019-04-22T21:21:25.164Z,45.50
2019-04-22T21:23:47.665Z,46.99
2019-04-22T21:26:27.450Z,47.68
2019-04-22T21:28:53.756Z,47.46
2019-04-22T21:31:32.368Z,47.98
2019-04-22T21:33:50.308Z,46.74
2019-04-22T21:36:31.263Z,45.83
2019-04-22T21:38:53.215Z,45.86
2019-04-22T21:41:20.332Z,45.63
2019-04-22T21:43:53.661Z,45.49
2019-04-22T21:46:27.907Z,45.47
2019-04-22T21:49:02.900Z,45.40
2019-04-22T21:51:34.535Z,44.26
2019-04-22T21:54:04.245Z,45.40
2019-04-22T21:56:41.151Z,45.50
2019-04-22T21:59:07.851Z,45.83
2019-04-22T22:01:51.231Z,44.25
2019-04-22T22:04:15.378Z,44.00
2019-04-22T22:06:37.270Z,45.71
2019-04-22T22:09:15.538Z,46.38
2019-04-22T22:11:38.632Z,47.09
2019-04-22T22:14:11.736Z,46.16
2019-04-22T22:16:37.490Z,45.16
2019-04-22T22:19:11.703Z,44.52
2019-04-22T22:21:55.454Z,45.35
2019-04-22T22:24:18.844Z,44.49
2019-04-22T22:26:46.552Z,45.82
2019-04-22T22:29:24.656Z,44.07
2019-04-22T22:31:47.011Z,43.29
2019-04-22T22:34:17.635Z,43.86
2019-04-22T22:36:40.850Z,44.68
2019-04-22T22:39:07.556Z,46.16
2019-04-22T22:41:26.053Z,46.24
2019-04-22T22:44:03.278Z,45.84
2019-04-22T22:46:34.163Z,46.13
2019-04-22T22:49:18.558Z,45.30
2019-04-22T22:52:26.174Z,45.71
2019-04-22T22:54:17.593Z,44.84
2019-04-22T22:56:55.736Z,44.41
2019-04-22T22:59:18.117Z,43.51
2019-04-22T23:04:23.152Z,45.13
2019-04-22T23:06:53.359Z,47.71
2019-04-22T23:09:22.501Z,47.23
2019-04-22T23:12:04.080Z,47.59
2019-04-22T23:14:21.959Z,45.71
2019-04-22T23:16:39.776Z,44.54
2019-04-22T23:19:06.669Z,46.79
2019-04-22T23:21:39.696Z,46.47
2019-04-22T23:24:21.286Z,46.16
2019-04-22T23:26:54.057Z,46.92
2019-04-22T23:29:25.376Z,47.28
2019-04-22T23:32:01.668Z,47.68
2019-04-22T23:34:32.841Z,46.55
2019-04-22T23:37:18.800Z,46.58
2019-04-22T23:40:01.677Z,45.77
2019-04-22T23:42:39.773Z,45.42
2019-04-22T23:44:56.315Z,44.70
2019-04-22T23:47:21.090Z,43.97
2019-04-22T23:49:56.087Z,44.10
2019-04-22T23:52:40.271Z,43.23
2019-04-22T23:55:11.525Z,45.09
2019-04-22T23:57:42.172Z,44.71
